createdAt,value
2019-01-26T00:01:29.590Z,100497.70
2019-01-26T00:04:15.313Z,100489.27
2019-01-26T00:07:15.525Z,100488.31
2019-01-26T00:09:47.548Z,100485.65
2019-01-26T00:12:19.630Z,100481.47
2019-01-26T00:14:51.601Z,100479.45
2019-01-26T00:17:23.626Z,100471.05
2019-01-26T00:19:55.579Z,100475.32
2019-01-26T00:22:27.663Z,100464.22
2019-01-26T00:24:59.726Z,100463.51
2019-01-26T00:27:33.881Z,100462.93
2019-01-26T00:30:06.725Z,100460.05
2019-01-26T00:32:38.720Z,100455.69
2019-01-26T00:35:10.756Z,100446.37
2019-01-26T00:37:42.774Z,100442.56
2019-01-26T00:40:15.735Z,100444.59
2019-01-26T00:43:01.281Z,100440.81
2019-01-26T00:45:33.321Z,100435.49
2019-01-26T00:48:05.280Z,100427.91
2019-01-26T00:50:37.267Z,100430.74
2019-01-26T00:53:09.242Z,100425.75
2019-01-26T00:55:41.288Z,100424.69
2019-01-26T00:58:13.274Z,100424.52
2019-01-26T01:00:45.302Z,100417.28
2019-01-26T01:03:17.336Z,100407.55
2019-01-26T01:05:49.275Z,100399.52
2019-01-26T01:08:21.335Z,100400.86
2019-01-26T01:10:53.294Z,100395.30
2019-01-26T01:13:25.315Z,100388.78
2019-01-26T01:15:57.292Z,100392.99
2019-01-26T01:18:29.278Z,100384.83
2019-01-26T01:21:01.902Z,100375.50
2019-01-26T01:23:34.046Z,100376.95
2019-01-26T01:26:06.129Z,100367.62
2019-01-26T01:28:38.174Z,100358.60
2019-01-26T01:31:10.150Z,100350.48
2019-01-26T01:33:42.097Z,100352.56
2019-01-26T01:36:14.119Z,100343.72
2019-01-26T01:38:46.148Z,100339.85
2019-01-26T01:41:18.144Z,100339.02
2019-01-26T01:43:50.114Z,100340.80
2019-01-26T01:46:25.386Z,100331.06
2019-01-26T01:48:57.388Z,100326.53
2019-01-26T01:51:29.393Z,100324.05
2019-01-26T01:54:02.117Z,100317.86
2019-01-26T01:56:34.713Z,100312.63
2019-01-26T01:59:08.994Z,100309.07
2019-01-26T02:01:40.996Z,100308.36
2019-01-26T02:04:12.988Z,100304.72
2019-01-26T02:07:17.499Z,100296.91
2019-01-26T02:09:55.821Z,100283.09
2019-01-26T02:12:33.590Z,100281.22
2019-01-26T02:15:06.003Z,100282.59
2019-01-26T02:17:37.974Z,100277.58
2019-01-26T02:20:13.168Z,100268.74
2019-01-26T02:22:48.486Z,100268.20
2019-01-26T02:25:21.141Z,100256.34
2019-01-26T02:27:53.132Z,100253.86
2019-01-26T02:30:39.149Z,100254.26
2019-01-26T02:33:11.109Z,100241.11
2019-01-26T02:35:43.200Z,100239.59
2019-01-26T02:38:15.188Z,100229.02
2019-01-26T02:40:53.766Z,100228.23
2019-01-26T02:43:29.175Z,100226.48
2019-01-26T02:46:01.318Z,100214.63
2019-01-26T02:48:33.367Z,100216.89
2019-01-26T02:51:05.445Z,100220.80
2019-01-26T02:53:37.459Z,100212.62
2019-01-26T02:56:09.478Z,100203.44
2019-01-26T02:58:41.526Z,100201.84
2019-01-26T03:01:19.267Z,100201.17
2019-01-26T03:03:56.033Z,100189.05
2019-01-26T03:06:28.122Z,100181.31
2019-01-26T03:09:00.195Z,100182.12
2019-01-26T03:11:36.688Z,100172.70
2019-01-26T03:14:12.058Z,100177.94
2019-01-26T03:16:47.173Z,100181.95
2019-01-26T03:19:19.180Z,100180.83
2019-01-26T03:21:51.131Z,100167.55
2019-01-26T03:24:23.187Z,100151.69
2019-01-26T03:26:55.257Z,100150.89
2019-01-26T03:29:31.488Z,100143.69
2019-01-26T03:32:03.433Z,100138.89
2019-01-26T03:34:35.381Z,100131.61
2019-01-26T03:37:07.421Z,100130.00
2019-01-26T03:39:39.388Z,100116.55
2019-01-26T03:42:11.422Z,100107.22
2019-01-26T03:44:43.383Z,100097.39
2019-01-26T03:47:15.380Z,100089.06
2019-01-26T03:49:47.429Z,100091.24
2019-01-26T03:52:19.469Z,100093.33
2019-01-26T03:54:51.416Z,100090.27
2019-01-26T03:57:23.439Z,100094.09
2019-01-26T03:59:55.438Z,100093.05
2019-01-26T04:02:27.469Z,100086.12
2019-01-26T04:04:59.443Z,100082.90
2019-01-26T04:07:31.431Z,100076.86
2019-01-26T04:10:03.424Z,100065.80
2019-01-26T04:12:35.491Z,100059.23
2019-01-26T04:15:11.860Z,100044.09
2019-01-26T04:17:44.233Z,100045.95
2019-01-26T04:20:18.314Z,100050.21
2019-01-26T04:22:50.330Z,100043.08
2019-01-26T04:25:22.333Z,100038.81
2019-01-26T04:27:54.331Z,100041.72
2019-01-26T04:30:26.308Z,100034.06
2019-01-26T04:32:58.347Z,100036.08
2019-01-26T04:35:30.323Z,100028.63
2019-01-26T04:38:02.288Z,100021.87
2019-01-26T04:40:34.392Z,100018.12
2019-01-26T04:43:06.411Z,100008.46
2019-01-26T04:45:39.698Z,100007.50
2019-01-26T04:48:11.661Z,99996.91
2019-01-26T04:50:43.628Z,99992.97
2019-01-26T04:53:31.735Z,99999.48
2019-01-26T04:56:03.702Z,100000.85
2019-01-26T04:58:35.808Z,99998.16
2019-01-26T05:01:07.896Z,99993.20
2019-01-26T05:03:42.982Z,99993.53
2019-01-26T05:06:14.996Z,99992.23
2019-01-26T05:08:47.200Z,99993.76
2019-01-26T05:11:19.159Z,99996.33
2019-01-26T05:13:51.417Z,99994.29
2019-01-26T05:16:23.491Z,99995.83
2019-01-26T05:18:55.444Z,99992.23
2019-01-26T05:21:27.379Z,99990.30
2019-01-26T05:23:59.421Z,99986.22
2019-01-26T05:26:31.468Z,99976.70
2019-01-26T05:29:03.475Z,99982.50
2019-01-26T05:31:35.561Z,99974.69
2019-01-26T05:34:07.549Z,99968.80
2019-01-26T05:36:40.617Z,99964.86
2019-01-26T05:39:12.924Z,99960.44
2019-01-26T05:41:44.964Z,99956.09
2019-01-26T05:44:16.915Z,99954.35
2019-01-26T05:46:48.912Z,99944.92
2019-01-26T05:49:20.868Z,99945.31
2019-01-26T05:51:52.914Z,99946.81
2019-01-26T05:54:24.907Z,99942.88
2019-01-26T05:56:56.988Z,99943.50
2019-01-26T05:59:29.151Z,99946.33
2019-01-26T06:02:01.381Z,99940.77
2019-01-26T06:04:33.368Z,99938.66
2019-01-26T06:07:05.412Z,99942.73
2019-01-26T06:09:37.378Z,99935.08
2019-01-26T06:12:09.502Z,99926.95
2019-01-26T06:14:41.589Z,99939.02
2019-01-26T06:17:13.589Z,99929.08
2019-01-26T06:19:45.544Z,99924.07
2019-01-26T06:22:17.537Z,99925.06
2019-01-26T06:24:49.486Z,99923.96
2019-01-26T06:27:21.598Z,99924.52
2019-01-26T06:29:53.645Z,99920.46
2019-01-26T06:32:25.834Z,99910.63
2019-01-26T06:34:57.781Z,99916.19
2019-01-26T06:37:29.811Z,99912.80
2019-01-26T06:40:01.825Z,99913.42
2019-01-26T06:42:33.784Z,99917.23
2019-01-26T06:45:06.183Z,99911.86
2019-01-26T06:47:38.194Z,99910.80
2019-01-26T06:50:13.067Z,99903.98
2019-01-26T06:52:45.131Z,99905.61
2019-01-26T06:55:17.153Z,99902.84
2019-01-26T06:57:49.112Z,99892.34
2019-01-26T07:00:27.394Z,99892.68
2019-01-26T07:02:59.418Z,99896.88
2019-01-26T07:05:56.158Z,99892.20
2019-01-26T07:08:28.139Z,99880.75
2019-01-26T07:11:00.154Z,99881.15
2019-01-26T07:13:32.294Z,99878.76
2019-01-26T07:16:04.289Z,99876.81
2019-01-26T07:18:36.434Z,99873.02
2019-01-26T07:21:08.488Z,99866.72
2019-01-26T07:23:40.534Z,99862.06
2019-01-26T07:26:12.554Z,99856.17
2019-01-26T07:28:44.526Z,99853.86
2019-01-26T07:31:16.593Z,99849.44
2019-01-26T07:33:48.621Z,99842.59
2019-01-26T07:36:20.697Z,99836.74
2019-01-26T07:38:52.675Z,99839.73
2019-01-26T07:41:24.617Z,99834.23
2019-01-26T07:43:59.559Z,99833.21
2019-01-26T07:46:31.523Z,99822.12
2019-01-26T07:49:03.500Z,99818.77
2019-01-26T07:51:35.501Z,99821.83
2019-01-26T07:54:07.539Z,99816.81
2019-01-26T07:56:39.602Z,99811.83
2019-01-26T07:59:11.650Z,99814.66
2019-01-26T08:01:43.614Z,99814.33
2019-01-26T08:04:15.640Z,99813.28
2019-01-26T08:06:49.240Z,99807.03
2019-01-26T08:09:24.296Z,99807.91
2019-01-26T08:11:56.282Z,99809.18
2019-01-26T08:14:28.205Z,99805.83
2019-01-26T08:17:00.225Z,99808.95
2019-01-26T08:19:32.223Z,99808.14
2019-01-26T08:22:04.228Z,99797.48
2019-01-26T08:24:36.213Z,99791.27
2019-01-26T08:27:08.442Z,99786.59
2019-01-26T08:29:40.567Z,99781.08
2019-01-26T08:32:13.623Z,99783.17
2019-01-26T08:34:45.730Z,99780.05
2019-01-26T08:37:17.729Z,99786.00
2019-01-26T08:39:49.717Z,99778.42
2019-01-26T08:42:21.689Z,99780.41
2019-01-26T08:44:53.815Z,99777.58
2019-01-26T08:50:54.734Z,99775.67
2019-01-26T08:53:26.818Z,99786.89
2019-01-26T08:55:58.802Z,99776.84
2019-01-26T08:58:30.935Z,99775.08
2019-01-26T09:01:02.959Z,99778.07
2019-01-26T09:03:48.065Z,99778.51
2019-01-26T09:06:30.156Z,99774.20
2019-01-26T09:09:03.412Z,99775.02
2019-01-26T09:11:36.039Z,99776.99
2019-01-26T09:14:09.600Z,99775.11
2019-01-26T09:16:41.666Z,99775.86
2019-01-26T09:19:13.783Z,99772.14
2019-01-26T09:21:47.597Z,99766.55
2019-01-26T09:24:19.755Z,99763.16
2019-01-26T09:26:51.762Z,99765.89
2019-01-26T09:29:24.237Z,99764.53
2019-01-26T09:31:56.217Z,99764.92
2019-01-26T09:34:28.221Z,99758.14
2019-01-26T09:37:00.374Z,99755.97
2019-01-26T09:39:32.453Z,99745.84
2019-01-26T09:42:04.506Z,99745.08
2019-01-26T09:44:36.990Z,99743.38
2019-01-26T09:47:08.942Z,99737.52
2019-01-26T09:49:40.896Z,99745.81
2019-01-26T09:52:12.941Z,99737.61
2019-01-26T09:54:44.880Z,99734.41
2019-01-26T09:57:16.962Z,99747.54
2019-01-26T09:59:48.914Z,99741.61
2019-01-26T10:02:20.902Z,99743.87
2019-01-26T10:04:52.995Z,99740.94
2019-01-26T10:07:25.054Z,99738.14
2019-01-26T10:09:57.176Z,99745.54
2019-01-26T10:12:29.197Z,99734.87
2019-01-26T10:15:01.237Z,99737.24
2019-01-26T10:17:33.364Z,99735.54
2019-01-26T10:20:07.609Z,99731.11
2019-01-26T10:22:39.610Z,99720.51
2019-01-26T10:25:12.175Z,99714.81
2019-01-26T10:27:44.193Z,99712.48
2019-01-26T10:30:24.658Z,99702.34
2019-01-26T10:32:57.736Z,99693.01
2019-01-26T10:35:47.682Z,99697.22
2019-01-26T10:38:19.913Z,99695.19
2019-01-26T10:41:09.558Z,99693.89
2019-01-26T10:43:45.737Z,99686.46
2019-01-26T10:46:17.745Z,99681.84
2019-01-26T10:48:49.716Z,99680.48
2019-01-26T10:51:21.730Z,99690.61
2019-01-26T11:15:09.025Z,99676.25
2019-01-26T11:17:41.094Z,99678.64
2019-01-26T11:20:13.104Z,99683.24
2019-01-26T11:22:45.130Z,99671.83
2019-01-26T11:25:17.209Z,99673.48
2019-01-26T11:27:49.289Z,99680.95
2019-01-26T11:30:22.999Z,99673.55
2019-01-26T11:32:55.079Z,99663.81
2019-01-26T11:35:27.039Z,99666.99
2019-01-26T11:37:59.111Z,99665.11
2019-01-26T11:41:09.677Z,99658.13
2019-01-26T11:43:42.014Z,99655.88
2019-01-26T11:46:25.800Z,99665.02
2019-01-26T11:48:58.835Z,99669.46
2019-01-26T11:51:38.270Z,99660.45
2019-01-26T11:54:10.330Z,99661.17
2019-01-26T11:56:51.074Z,99661.84
2019-01-26T11:59:23.232Z,99665.41
2019-01-26T12:02:17.254Z,99669.78
2019-01-26T12:04:53.616Z,99665.48
2019-01-26T12:07:28.436Z,99668.22
2019-01-26T12:10:00.499Z,99659.52
2019-01-26T12:12:32.564Z,99658.98
2019-01-26T12:15:05.210Z,99650.28
2019-01-26T12:17:37.215Z,99649.92
2019-01-26T12:20:12.104Z,99648.50
2019-01-26T12:22:44.206Z,99647.73
2019-01-26T12:25:16.251Z,99641.77
2019-01-26T12:27:48.266Z,99646.13
2019-01-26T12:30:21.475Z,99653.13
2019-01-26T12:32:53.557Z,99647.99
2019-01-26T12:35:41.183Z,99650.18
2019-01-26T12:38:11.876Z,99649.91
2019-01-26T12:40:43.863Z,99651.69
2019-01-26T12:43:16.015Z,99654.80
2019-01-26T12:45:52.028Z,99650.07
2019-01-26T12:48:26.093Z,99641.84
2019-01-26T12:51:08.906Z,99646.44
2019-01-26T12:53:49.386Z,99644.84
2019-01-26T12:56:24.647Z,99641.43
2019-01-26T12:58:58.774Z,99643.08
2019-01-26T13:01:30.957Z,99646.88
2019-01-26T13:04:03.194Z,99648.94
2019-01-26T13:06:35.271Z,99647.69
2019-01-26T13:09:10.201Z,99637.23
2019-01-26T13:11:44.070Z,99648.52
2019-01-26T13:14:16.303Z,99645.09
2019-01-26T13:16:48.297Z,99641.52
2019-01-26T13:19:20.349Z,99641.58
2019-01-26T13:21:52.367Z,99641.78
2019-01-26T13:24:24.412Z,99643.28
2019-01-26T13:26:56.477Z,99657.54
2019-01-26T13:29:28.646Z,99652.31
2019-01-26T13:32:00.755Z,99665.16
2019-01-26T13:34:34.312Z,99668.72
2019-01-26T13:37:12.299Z,99663.44
2019-01-26T13:39:50.588Z,99661.98
2019-01-26T13:42:34.499Z,99664.93
2019-01-26T13:45:34.180Z,99660.15
2019-01-26T13:48:06.320Z,99662.64
2019-01-26T13:50:38.608Z,99657.97
2019-01-26T13:53:10.946Z,99656.38
2019-01-26T13:55:43.050Z,99657.37
2019-01-26T13:58:15.154Z,99651.98
2019-01-26T14:00:47.276Z,99650.91
2019-01-26T14:03:19.372Z,99649.91
2019-01-26T14:05:51.394Z,99654.62
2019-01-26T14:08:23.521Z,99648.82
2019-01-26T14:10:55.481Z,99657.06
2019-01-26T14:13:27.545Z,99662.81
2019-01-26T14:15:59.554Z,99663.07
2019-01-26T14:18:31.659Z,99663.78
2019-01-26T14:21:59.123Z,99664.66
2019-01-26T14:25:00.061Z,99665.45
2019-01-26T14:32:42.484Z,99664.56
2019-01-26T14:35:18.732Z,99668.92
2019-01-26T14:37:54.407Z,99660.22
2019-01-26T14:52:48.882Z,99650.59
2019-01-26T15:03:53.748Z,99661.61
2019-01-26T15:06:52.350Z,99662.80
2019-01-26T15:17:39.456Z,99657.37
2019-01-26T15:24:22.413Z,99664.37
2019-01-26T15:35:01.418Z,99663.98
2019-01-26T15:38:51.309Z,99666.11
2019-01-26T15:41:51.495Z,99663.56
2019-01-26T15:45:28.634Z,99656.11
2019-01-26T15:48:55.894Z,99666.11
2019-01-26T15:59:37.846Z,99661.92
2019-01-26T16:02:48.898Z,99661.56
2019-01-26T16:06:24.152Z,99661.52
2019-01-26T16:09:28.977Z,99664.50
2019-01-26T16:12:27.632Z,99670.00
2019-01-26T16:15:53.784Z,99668.65
2019-01-26T16:22:38.805Z,99681.48
2019-01-26T16:25:47.568Z,99676.30
2019-01-26T16:29:17.527Z,99678.58
2019-01-26T16:32:49.324Z,99680.30
2019-01-26T16:36:25.477Z,99681.95
2019-01-26T16:43:19.329Z,99696.19
2019-01-26T16:46:30.525Z,99687.64
2019-01-26T16:49:41.517Z,99689.77
2019-01-26T16:58:27.690Z,99698.90
2019-01-26T17:00:42.988Z,99701.89
2019-01-26T17:03:54.549Z,99698.59
2019-01-26T17:07:12.909Z,99695.19
2019-01-26T17:14:57.381Z,99700.47
2019-01-26T17:18:13.835Z,99702.59
2019-01-26T17:21:45.007Z,99702.66
2019-01-26T17:27:59.333Z,99692.91
2019-01-26T17:30:51.406Z,99692.16
2019-01-26T17:31:23.011Z,99690.17
2019-01-26T17:37:22.132Z,99686.64
2019-01-26T17:43:25.405Z,99681.45
2019-01-26T17:46:14.180Z,99676.69
2019-01-26T17:49:17.370Z,99677.22
2019-01-26T17:52:06.625Z,99679.86
2019-01-26T17:55:53.270Z,99686.04
2019-01-26T17:59:28.698Z,99685.92
2019-01-26T18:02:00.729Z,99685.70
2019-01-26T18:05:19.125Z,99688.00
2019-01-26T18:16:25.914Z,99688.14
2019-01-26T18:19:11.656Z,99696.48
2019-01-26T18:34:06.062Z,99685.14
2019-01-26T18:41:23.840Z,99687.96
2019-01-26T18:51:54.445Z,99679.25
2019-01-26T18:56:04.565Z,99679.55
2019-01-26T18:59:05.905Z,99678.48
2019-01-26T19:01:46.896Z,99678.58
2019-01-26T19:04:29.717Z,99680.72
2019-01-26T19:07:06.947Z,99675.52
2019-01-26T19:24:51.629Z,99653.23
2019-01-26T19:28:06.268Z,99647.70
2019-01-26T19:39:50.694Z,99646.14
2019-01-26T19:43:09.380Z,99649.72
2019-01-26T19:46:20.461Z,99652.72
2019-01-26T19:49:11.514Z,99647.59
2019-01-26T19:52:33.676Z,99642.56
2019-01-26T19:55:26.732Z,99644.73
2019-01-26T19:58:34.645Z,99638.09
2019-01-26T20:01:09.126Z,99645.81
2019-01-26T20:03:44.881Z,99646.12
2019-01-26T20:06:22.558Z,99642.59
2019-01-26T20:09:15.881Z,99641.78
2019-01-26T20:11:50.268Z,99640.01
2019-01-26T20:15:12.549Z,99638.03
2019-01-26T20:17:15.202Z,99634.31
2019-01-26T20:20:08.795Z,99640.53
2019-01-26T20:22:46.542Z,99639.39
2019-01-26T20:25:25.865Z,99638.98
2019-01-26T20:27:59.028Z,99632.23
2019-01-26T20:30:38.484Z,99635.59
2019-01-26T20:33:11.388Z,99632.07
2019-01-26T20:35:44.138Z,99633.84
2019-01-26T20:38:21.385Z,99634.08
2019-01-26T20:40:57.441Z,99638.80
2019-01-26T20:43:33.294Z,99636.95
2019-01-26T20:46:11.808Z,99634.47
2019-01-26T20:49:05.807Z,99633.69
2019-01-26T20:51:42.971Z,99630.27
2019-01-26T20:54:27.469Z,99624.78
2019-01-26T20:57:01.303Z,99627.26
2019-01-26T20:59:36.413Z,99621.13
2019-01-26T21:02:09.576Z,99618.36
2019-01-26T21:04:53.646Z,99618.36
2019-01-26T21:08:21.262Z,99614.98
2019-01-26T21:11:42.023Z,99618.98
2019-01-26T21:14:51.331Z,99611.52
2019-01-26T21:18:03.242Z,99603.47
2019-01-26T21:20:51.075Z,99617.15
2019-01-26T21:24:00.119Z,99622.49
2019-01-26T21:27:17.106Z,99619.48
2019-01-26T21:30:10.938Z,99612.53
2019-01-26T21:33:12.348Z,99613.17
2019-01-26T21:35:55.260Z,99610.12
2019-01-26T21:38:45.446Z,99608.00
2019-01-26T21:42:40.582Z,99606.86
2019-01-26T21:45:04.266Z,99613.13
2019-01-26T21:48:00.345Z,99605.95
2019-01-26T21:50:32.030Z,99605.24
2019-01-26T21:53:18.972Z,99602.86
2019-01-26T21:55:52.618Z,99603.12
2019-01-26T21:58:27.838Z,99593.52
2019-01-26T22:01:00.073Z,99593.62
2019-01-26T22:03:35.340Z,99594.67
2019-01-26T22:06:20.526Z,99593.53
2019-01-26T22:08:58.689Z,99584.77
2019-01-26T22:11:37.423Z,99583.56
2019-01-26T22:14:10.975Z,99583.63
2019-01-26T22:16:43.580Z,99579.26
2019-01-26T22:19:21.740Z,99568.99
2019-01-26T22:21:55.162Z,99565.59
2019-01-26T22:24:28.757Z,99564.30
2019-01-26T22:27:01.057Z,99557.54
2019-01-26T22:29:33.827Z,99561.44
2019-01-26T22:32:06.675Z,99563.84
2019-01-26T22:34:38.833Z,99560.63
2019-01-26T22:37:10.940Z,99568.45
2019-01-26T22:39:43.120Z,99573.48
2019-01-26T22:42:15.291Z,99576.48
2019-01-26T23:07:22.591Z,99542.05
2019-01-26T23:11:00.225Z,99543.59
2019-01-26T23:14:35.764Z,99543.39
2019-01-26T23:18:00.188Z,99538.30
2019-01-26T23:21:08.461Z,99539.31
2019-01-26T23:24:21.871Z,99534.91
2019-01-26T23:27:28.454Z,99534.96
2019-01-26T23:30:42.718Z,99524.32
2019-01-26T23:33:14.729Z,99523.53
2019-01-26T23:35:46.836Z,99519.45
2019-01-26T23:38:21.210Z,99507.70
2019-01-26T23:40:55.503Z,99511.63
2019-01-26T23:43:29.981Z,99505.39
2019-01-26T23:46:02.159Z,99502.69
2019-01-26T23:48:34.413Z,99496.91
2019-01-26T23:51:06.485Z,99493.03
2019-01-26T23:53:38.469Z,99490.67
2019-01-26T23:56:10.608Z,99482.52
2019-01-26T23:58:42.614Z,99484.70
